Airfield :
LOGIN :

Register | Disclaimer

   EN    FR    IT 

 










Legend :    VFR   Marginal VFR   IFR   Intensive IFR   Very Intensive IFR
Visi :
Ceiling :
>= 8 km
>= 3000ft
5 to 8 km
1000 to 3000 ft
1500m to 5 km
500 to 1000 ft
800 to 1500m
200 to 500 ft
< 800m
< 200 ft
Symbols :   Thunderstorms  Fog  Heavy snow  Heavy precipitations  Wind > 20 kt
SIGMETs :     Misc.  Thunderstorms  Icing  Turbulence  Mountain Waves  Volcanic Ashes






- Airport Elevation : 1302 ft
- IATA code : GNB


LFLS - Grenoble / St. Geoirs

CURRENT METAR :
  • 140500Z AUTO VRB02KT CAVOK 14/12 Q1017 NOSIG

EXPIRED METARs :
  • 140430Z AUTO 27003KT 220V310 9999 FEW021 14/12 Q1017 NOSIG
  • 140400Z AUTO VRB02KT 9999 FEW022 14/12 Q1017
  • 140330Z AUTO 16005KT CAVOK 14/12 Q1017
  • 140300Z AUTO 16006KT 130V190 CAVOK 14/12 Q1017
  • 140230Z AUTO 16005KT 100V250 CAVOK 13/12 Q1017

TAF TAF LFLS
Valid from the 14 at 03:00 until the 15 at 03:00 UTC


140200Z 1403/1503 24013KT CAVOK
TEMPO 1403/1407 VRB03KT
PROB30
TEMPO 1417/1421 23015G25KT
BECMG 1422/1424 09005KT
ATIS : +33 4 76 65 55 89



MET'MAP, your aeronautical weather chart ! - Copyright ORBIFLY December 2007 - Disclaimer

ORBIFLY MET'MAP TEAM :

Programming & Development : Alexandra Zaïnal
Concept & Development : Baudouin d'Aumeries
Co-Development & Prog : Marc-Olivier Méhu
Technical & hardware support : Manuel Goepfert

Contact : metmap@orbifly.com




SOURCES & CREDITS :

   NOAA